Larnaca International Airport

Airport
ICAO code: 
LCLK
IATA Code: 
LCA
Summary
ICAO Region: 
EUR
Territory: 
Location: 
Larnaca, Larnaca
Serving: 
Larnaca
Coordinates: 
Aerial View: 
34° 52' 23.636" N, 33° 37' 23.827" E
Metar
Observation
LCLK 261000Z 16009KT 9999 FEW040 26/20 Q1016 NOSIG
Station
Larnaca Airport
Date/Time
2022-05-26 10:00:00
Wind direction
160°
Wind speed
09 kts
Lowest cloud amount
few clouds
Temperature
26°C
Dew point
20°C
Humidity
69%
QNH
1016 hPa
Weather condition
n/a

Description

Larnaca International Airport is an international airport located 4 km southwest of Larnaca, Cyprus. Larnaca International Airport is Cyprus' main international gateway and the larger of the country's two commercial airports, the other being Paphos International Airport on the island's southwestern coast. Larnaca serves Larnaca, Nicosia and Famagusta.

Climatology

Dry-summer subtropical ”Mediterranean" climate (Köppen climate classification Csa) - characterized by hot, dry summers and mild winters. During the summer, subtropical high pressure cells dominate, making rainfall unlikely except for the occasional thunderstorm. In the winter, periodic storms bring rain (snow at higher elevations).

Runways

Designator Length Width Surface Rops
4/22 2980 45 ASP Yes/Yes
Airport map: 
Aerial View: 

SKYbrary Partners:

Safety knowledge contributed by: